KBPG/BPG METAR and TAF weather

Enter ICAO airport designator
Station Type Date Time Source
KBPG METAR 2020/09/26 11:55 UTC NOAA

KBPG 261155Z AUTO 16010KT 10SM CLR 18/15 A2992 RMK AO2 T01840152 10224 20184


Station Type Date Time Source
KBPG Decoded METAR 2020/09/26 11:55 UTC NOAA

Big Spring, Big Spring McMahon-Wrinkle Airport, TX, United States (KBPG) 32-12N 101-31W
Sep 26, 2020 - 07:55 AM EDT / 2020.09.26 1155 UTC
Wind: from the SSE (160 degrees) at 12 MPH (10 KT):0
Visibility: 10 mile(s):0
Sky conditions: clear
Temperature: 65.1 F (18.4 C)
Dew Point: 59.4 F (15.2 C)
Relative Humidity: 81%
Pressure (altimeter): 29.92 in. Hg (1013 hPa)
ob: KBPG 261155Z AUTO 16010KT 10SM CLR 18/15 A2992 RMK AO2 T01840152 10224 20184
cycle: 12

Station Type Date Time Source
KBPG TAF UTC NOAA

Error!

Example: see airport list